Time;durP1;ratioP1;P1;durP2;ratioP2;P2;SDS_P1;SDS_P2;PMS_P1;PMS_P2;Temp;Humidity;BMP_temperature;BMP_pressure;BME280_temperature;BME280_humidity;BME280_pressure;Samples;Min_cycle;Max_cycle;Signal;HPM_P1;HPM_P2
2022/11/29 06:17:24;;;;;;;;;6.50;5.00;;;;;17.70;51.22;101344.66;5070967;27;46595;-88
2022/11/29 06:20:11;;;;;;;;;4.75;4.75;;;;;18.14;51.59;101342.25;5067367;28;45430;-85
2022/11/29 06:22:40;;;;;;;;;5.00;5.00;;;;;18.73;51.55;101355.69;5061758;28;45505;-87
2022/11/29 06:25:19;;;;;;;;;4.00;4.00;;;;;19.31;51.86;101347.50;5063912;28;45438;-81
2022/11/29 06:27:44;;;;;;;;;2.75;2.75;;;;;19.94;50.98;101361.25;5069340;28;45497;-80
2022/11/29 06:30:15;;;;;;;;;6.00;4.75;;;;;20.45;51.61;101353.38;5068210;28;45521;-83
2022/11/29 06:32:46;;;;;;;;;2.75;2.75;;;;;20.93;50.82;101357.34;5070578;27;45452;-79
2022/11/29 06:35:52;;;;;;;;;3.00;3.00;;;;;21.43;50.46;101356.50;5059899;27;45677;-83
2022/11/29 06:38:25;;;;;;;;;3.67;3.67;;;;;21.92;50.19;101354.81;5068194;28;46599;-88
2022/11/29 06:40:53;;;;;;;;;4.67;4.67;;;;;22.29;49.84;101354.06;5071846;28;45385;-89
2022/11/29 06:43:19;;;;;;;;;4.00;4.00;;;;;22.60;49.96;101359.28;5071539;28;45426;-85
2022/11/29 06:45:51;;;;;;;;;5.00;3.00;;;;;22.89;49.49;101360.19;5069852;28;45372;-85
2022/11/29 06:48:25;;;;;;;;;5.67;4.00;;;;;23.17;49.44;101376.41;5071238;28;46253;-89
2022/11/29 06:51:22;;;;;;;;;5.33;4.00;;;;;23.37;48.99;101377.19;5061408;27;45399;-84
2022/11/29 06:54:01;;;;;;;;;4.33;4.33;;;;;23.54;48.63;101388.22;5062394;28;45564;-83
2022/11/29 06:56:42;;;;;;;;;5.00;3.00;;;;;23.62;48.36;101388.28;5057900;28;46192;-79
2022/11/29 06:59:44;;;;;;;;;3.67;3.67;;;;;23.70;47.99;101387.50;5062382;28;45436;-80
2022/11/29 07:02:23;;;;;;;;;8.00;4.00;;;;;23.76;47.41;101391.47;5065574;27;45506;-82
2022/11/29 07:46:15;;;;;;;;;5.00;5.00;;;;;19.64;48.38;101422.06;5098289;27;45856;-81
2022/11/29 07:48:41;;;;;;;;;4.00;2.67;;;;;19.81;48.76;101426.03;5091976;27;45439;-84
2022/11/29 07:51:06;;;;;;;;;4.33;4.33;;;;;20.15;48.59;101428.66;5091085;27;45439;-84
2022/11/29 07:53:36;;;;;;;;;6.33;6.33;;;;;20.49;49.41;101427.63;5080859;27;45506;-89
2022/11/29 07:56:01;;;;;;;;;5.00;5.00;;;;;20.88;48.63;101427.88;5085632;27;45419;-80
2022/11/29 07:58:26;;;;;;;;;5.33;5.33;;;;;21.24;48.95;101426.63;5087290;27;46434;-85
2022/11/29 08:00:52;;;;;;;;;8.00;6.33;;;;;21.56;48.94;101426.44;5082143;27;45341;-84
2022/11/29 08:03:17;;;;;;;;;9.00;8.33;;;;;21.84;48.44;101425.81;5080825;27;54848;-83
2022/11/29 08:05:46;;;;;;;;;5.00;5.00;;;;;22.16;48.23;101431.94;5088497;27;45925;-83
2022/11/29 08:08:11;;;;;;;;;7.33;6.67;;;;;22.43;48.23;101442.00;5091486;27;45484;-86
2022/11/29 08:10:37;;;;;;;;;7.00;7.00;;;;;22.71;48.48;101438.56;5080302;27;45393;-89
2022/11/29 08:13:02;;;;;;;;;5.00;5.00;;;;;22.95;48.45;101448.91;5090485;27;45405;-90
2022/11/29 08:15:28;;;;;;;;;7.00;7.00;;;;;23.19;48.04;101449.38;5101849;27;46530;-86
2022/11/29 08:17:53;;;;;;;;;6.33;6.33;;;;;23.45;47.94;101448.75;5087614;27;45438;-89
2022/11/29 08:20:19;;;;;;;;;7.00;6.00;;;;;23.68;47.56;101451.88;5092049;27;45395;-91
2022/11/29 08:22:52;;;;;;;;;8.00;6.00;;;;;23.89;47.47;101448.00;5091449;27;45557;-79
2022/11/29 08:25:18;;;;;;;;;6.00;6.00;;;;;24.10;47.46;101458.59;5086389;27;45484;-79
2022/11/29 08:27:43;;;;;;;;;6.00;6.00;;;;;24.26;47.07;101457.03;5080485;27;50632;-79
2022/11/29 08:30:09;;;;;;;;;6.33;6.33;;;;;24.39;46.89;101464.78;5083887;27;51220;-78
2022/11/29 08:32:34;;;;;;;;;6.67;5.00;;;;;24.50;46.72;101466.38;5085478;27;45354;-85
2022/11/29 08:35:00;;;;;;;;;5.00;5.00;;;;;24.59;46.61;101470.84;5082547;27;46318;-88
2022/11/29 08:37:25;;;;;;;;;6.67;6.33;;;;;24.68;46.70;101475.34;5082685;27;46066;-81
2022/11/29 08:39:50;;;;;;;;;4.00;4.00;;;;;24.70;46.33;101478.75;5083474;27;45440;-84
2022/11/29 08:42:16;;;;;;;;;8.00;7.67;;;;;24.72;46.26;101478.59;5093681;27;45434;-84
2022/11/29 08:44:41;;;;;;;;;6.00;6.00;;;;;24.75;46.07;101478.28;5091933;27;45311;-91
2022/11/29 08:50:01;;;;;;;;;5.33;5.00;;;;;24.71;45.95;101487.75;5095598;27;45336;-92
2022/11/29 08:55:12;;;;;;;;;5.00;5.00;;;;;24.69;45.55;101506.91;5091122;27;45748;-91
2022/11/29 08:57:37;;;;;;;;;5.33;5.33;;;;;24.65;45.83;101499.25;5076973;27;45391;-96
2022/11/29 09:00:04;;;;;;;;;5.67;5.67;;;;;24.65;45.62;101501.94;5112654;22;45461;-96
2022/11/29 09:02:30;;;;;;;;;7.00;7.00;;;;;24.63;45.30;101509.38;5093035;27;45583;-94
2022/11/29 09:04:55;;;;;;;;;6.00;4.67;;;;;24.61;45.49;101515.00;5103490;22;45880;-96
2022/11/29 09:07:20;;;;;;;;;5.67;4.00;;;;;24.66;45.59;101528.09;5097061;22;55945;-90
2022/11/29 09:09:46;;;;;;;;;6.33;5.33;;;;;24.69;45.49;101527.78;5010514;28;45554;-83
2022/11/29 09:12:11;;;;;;;;;6.00;5.33;;;;;24.73;45.43;101527.28;5004099;28;47404;-87
2022/11/29 09:14:36;;;;;;;;;6.00;6.00;;;;;24.76;45.34;101528.84;5017025;28;51128;-87
2022/11/29 09:17:01;;;;;;;;;6.00;6.00;;;;;24.76;45.76;101531.56;5029160;28;51325;-88
2022/11/29 09:19:27;;;;;;;;;9.00;8.67;;;;;24.77;45.26;101532.41;5017263;28;45402;-86
2022/11/29 09:21:52;;;;;;;;;5.67;5.67;;;;;24.77;45.47;101543.28;5014181;28;45332;-93
2022/11/29 09:24:19;;;;;;;;;8.00;7.00;;;;;24.79;45.48;101535.81;5003181;28;46231;-88
2022/11/29 09:26:47;;;;;;;;;7.00;5.33;;;;;24.80;45.32;101549.22;5002669;28;45548;-87
2022/11/29 09:29:14;;;;;;;;;6.67;5.33;;;;;24.81;45.44;101544.66;5020019;28;45467;-95
2022/11/29 09:31:40;;;;;;;;;5.67;5.67;;;;;24.85;45.50;101551.53;5017698;28;45425;-94
2022/11/29 09:34:05;;;;;;;;;8.00;7.00;;;;;24.86;45.19;101548.63;5029749;28;47138;-91
2022/11/29 09:36:31;;;;;;;;;5.67;5.00;;;;;24.86;45.05;101554.06;5023255;28;45533;-96
2022/11/29 09:38:58;;;;;;;;;7.00;7.00;;;;;24.86;45.22;101562.19;5018263;28;45524;-87
2022/11/29 09:41:41;;;;;;;;;5.00;5.00;;;;;24.84;44.92;101561.50;5016001;28;45614;-84
2022/11/29 09:44:29;;;;;;;;;6.67;6.33;;;;;24.83;44.85;101559.81;5016202;28;45427;-83
2022/11/29 09:47:22;;;;;;;;;6.00;6.00;;;;;24.88;45.06;101569.34;5004408;28;45356;-89
2022/11/29 09:50:02;;;;;;;;;6.00;6.00;;;;;24.94;45.14;101568.72;5015661;28;45482;-87
2022/11/29 09:53:00;;;;;;;;;7.67;7.67;;;;;25.01;44.85;101572.50;5016955;28;45842;-93
2022/11/29 09:55:44;;;;;;;;;8.00;7.00;;;;;25.08;45.01;101583.56;4950793;28;46150;-79
2022/11/29 09:58:20;;;;;;;;;7.00;7.00;;;;;25.13;44.84;101581.22;4969595;28;45674;-90
2022/11/29 10:00:52;;;;;;;;;6.00;6.00;;;;;25.16;45.08;101585.50;4975626;28;45642;-90
2022/11/29 10:03:24;;;;;;;;;6.00;6.00;;;;;25.15;44.76;101579.22;4975157;28;45780;-91
2022/11/29 10:06:01;;;;;;;;;7.33;7.33;;;;;25.15;44.62;101594.66;4975149;28;45579;-90
2022/11/29 10:08:35;;;;;;;;;9.00;6.00;;;;;25.15;44.46;101605.53;4972783;28;45345;-89
2022/11/29 10:11:56;;;;;;;;;9.33;6.00;;;;;25.10;44.33;101606.84;4958058;28;45318;-92
2022/11/29 10:14:27;;;;;;;;;6.00;6.00;;;;;25.05;44.19;101603.75;4910723;28;45452;-89
2022/11/29 10:17:04;;;;;;;;;6.00;6.00;;;;;25.00;44.28;101609.69;4910747;28;45531;-88
2022/11/29 10:19:38;;;;;;;;;6.00;6.00;;;;;24.96;44.52;101602.84;4914965;28;45467;-95
2022/11/29 10:22:15;;;;;;;;;7.00;7.00;;;;;24.95;44.54;101613.88;4911799;28;47679;-88
2022/11/29 10:24:45;;;;;;;;;4.67;4.67;;;;;24.96;44.65;101604.69;4916171;28;45368;-86
2022/11/29 10:27:21;;;;;;;;;6.00;6.00;;;;;24.99;44.63;101612.53;4915249;28;45545;-82
2022/11/29 10:29:49;;;;;;;;;7.00;7.00;;;;;25.04;44.81;101612.06;4914917;28;45451;-83
2022/11/29 10:32:16;;;;;;;;;5.33;5.33;;;;;25.10;44.49;101608.72;4925764;28;45668;-87
2022/11/29 10:34:42;;;;;;;;;7.00;7.00;;;;;25.13;44.39;101611.97;4943364;28;45584;-86
2022/11/29 10:37:15;;;;;;;;;9.00;7.00;;;;;25.15;44.17;101617.25;4949220;28;46009;-87
2022/11/29 10:39:51;;;;;;;;;11.33;8.33;;;;;25.13;44.37;101620.13;4947334;28;45749;-89
2022/11/29 10:45:15;;;;;;;;;10.33;8.33;;;;;25.00;43.88;101625.09;4987080;28;46842;-83
2022/11/29 10:47:44;;;;;;;;;9.00;7.33;;;;;24.93;43.85;101624.03;5024665;28;46325;-92
2022/11/29 10:50:25;;;;;;;;;9.00;9.00;;;;;24.86;43.69;101621.94;5008649;28;45615;-86
2022/11/29 10:52:54;;;;;;;;;9.00;7.67;;;;;24.84;43.86;101615.81;5018152;28;45416;-86
2022/11/29 10:55:21;;;;;;;;;8.33;8.33;;;;;24.83;43.61;101618.69;5011713;28;45418;-85
2022/11/29 10:58:17;;;;;;;;;9.00;9.00;;;;;24.82;43.71;101606.09;4995492;28;46085;-87
2022/11/29 11:01:08;;;;;;;;;12.33;9.33;;;;;24.81;43.81;101609.81;5008406;28;45601;-81
2022/11/29 11:03:50;;;;;;;;;10.67;9.33;;;;;24.76;43.32;101604.84;5014024;28;45383;-81
2022/11/29 11:06:25;;;;;;;;;10.00;10.00;;;;;24.69;43.30;101606.50;5002937;28;45319;-80
2022/11/29 11:08:53;;;;;;;;;7.00;6.33;;;;;24.63;43.60;101617.94;5003102;28;45487;-82
2022/11/29 11:11:30;;;;;;;;;8.33;8.00;;;;;24.57;43.22;101614.84;5014869;28;45521;-83
2022/11/29 11:14:02;;;;;;;;;11.67;11.00;;;;;24.56;43.34;101612.31;5014530;28;45400;-91
2022/11/29 11:16:28;;;;;;;;;10.33;9.33;;;;;24.58;43.29;101615.72;5014210;28;45749;-89
2022/11/29 11:18:54;;;;;;;;;9.67;9.00;;;;;24.58;43.56;101610.28;5013921;28;45988;-90
2022/11/29 11:21:24;;;;;;;;;11.33;11.00;;;;;24.63;43.21;101609.81;5015321;28;45825;-91
2022/11/29 11:23:59;;;;;;;;;10.33;10.33;;;;;24.65;43.12;101610.53;5013982;28;45478;-91
2022/11/29 11:26:25;;;;;;;;;9.00;9.00;;;;;24.65;42.77;101615.94;4999534;28;46122;-87
2022/11/29 11:28:58;;;;;;;;;10.00;9.00;;;;;24.64;43.06;101617.81;5007314;28;45458;-90
2022/11/29 11:31:39;;;;;;;;;11.00;10.00;;;;;24.65;42.87;101622.25;5007891;28;45475;-81
2022/11/29 11:34:27;;;;;;;;;9.67;9.67;;;;;24.63;42.79;101617.94;5008665;28;45861;-82
2022/11/29 11:37:16;;;;;;;;;13.00;12.33;;;;;24.58;42.71;101618.44;5007907;28;45384;-81
2022/11/29 11:39:44;;;;;;;;;9.00;8.00;;;;;24.55;43.00;101621.44;5010375;28;46195;-83
2022/11/29 11:44:59;;;;;;;;;11.67;10.67;;;;;24.45;42.80;101608.78;5001530;28;44867;-82
2022/11/29 11:47:27;;;;;;;;;11.33;11.00;;;;;24.42;42.54;101610.97;5008975;28;45477;-80
2022/11/29 11:50:05;;;;;;;;;11.00;8.33;;;;;24.39;42.73;101609.41;5022854;28;47413;-81
2022/11/29 11:52:53;;;;;;;;;10.33;9.00;;;;;24.37;42.37;101613.28;5011935;28;45529;-79
2022/11/29 11:55:50;;;;;;;;;12.67;10.67;;;;;24.36;42.65;101609.72;5005999;28;45307;-80
2022/11/29 11:58:21;;;;;;;;;11.33;10.33;;;;;24.36;42.52;101614.31;5003022;28;45751;-80
2022/11/29 12:00:53;;;;;;;;;11.33;10.00;;;;;24.36;42.39;101615.13;5010869;28;45519;-79
2022/11/29 12:03:27;;;;;;;;;13.33;11.33;;;;;24.36;42.47;101623.28;5012025;28;45458;-82
2022/11/29 12:05:58;;;;;;;;;11.00;11.00;;;;;24.36;42.49;101617.03;5011291;28;45555;-79
2022/11/29 12:08:26;;;;;;;;;9.67;9.67;;;;;24.34;42.38;101620.75;5020262;28;45684;-87
2022/11/29 12:10:56;;;;;;;;;10.00;10.00;;;;;24.35;42.11;101624.28;5013619;28;46198;-91
2022/11/29 12:13:31;;;;;;;;;12.00;11.00;;;;;24.36;42.22;101617.03;5013851;28;45436;-88
2022/11/29 12:16:02;;;;;;;;;9.00;9.00;;;;;24.35;42.33;101618.88;5011592;28;45438;-86
2022/11/29 12:18:41;;;;;;;;;9.33;9.00;;;;;24.39;42.25;101627.56;5014681;28;45468;-85
2022/11/29 12:21:22;;;;;;;;;8.00;8.00;;;;;24.42;42.61;101627.25;5002185;28;45506;-81
2022/11/29 12:24:12;;;;;;;;;11.00;11.00;;;;;24.44;42.36;101623.38;5006079;28;45468;-85
2022/11/29 12:26:40;;;;;;;;;11.00;11.00;;;;;24.45;42.29;101621.53;5015103;28;45479;-83
2022/11/29 12:29:13;;;;;;;;;10.67;10.33;;;;;24.43;42.02;101621.69;5014257;28;45440;-82
2022/11/29 12:31:44;;;;;;;;;12.00;11.00;;;;;24.40;42.40;101630.09;5014534;28;45408;-85
2022/11/29 12:34:28;;;;;;;;;11.33;11.33;;;;;24.39;42.35;101622.97;5018076;28;45503;-88
2022/11/29 12:37:22;;;;;;;;;9.67;9.67;;;;;24.37;41.85;101624.16;5003919;28;45316;-88
2022/11/29 12:40:03;;;;;;;;;11.33;11.00;;;;;24.32;42.13;101625.44;5013305;28;45522;-86
2022/11/29 12:42:44;;;;;;;;;11.67;11.67;;;;;24.29;42.21;101624.91;5017208;28;45331;-86
2022/11/29 12:45:23;;;;;;;;;11.00;10.00;;;;;24.28;42.23;101623.22;5008344;28;45479;-95
2022/11/29 12:48:22;;;;;;;;;13.00;10.67;;;;;24.27;42.19;101624.22;5018188;28;44796;-92
2022/11/29 12:50:57;;;;;;;;;10.00;9.33;;;;;24.31;42.28;101625.59;5015882;28;45562;-92
2022/11/29 12:53:50;;;;;;;;;15.67;12.00;;;;;24.38;41.97;101626.72;5006217;28;46613;-88
2022/11/29 12:56:42;;;;;;;;;7.33;6.67;;;;;24.48;42.13;101635.63;5029364;28;45462;-96
2022/11/29 12:59:25;;;;;;;;;16.67;10.67;;;;;24.56;42.21;101634.03;5055818;22;45654;-92
2022/11/29 13:01:54;;;;;;;;;12.33;9.67;;;;;24.60;42.33;101640.81;5037535;28;45471;-92
2022/11/29 13:04:38;;;;;;;;;7.00;7.00;;;;;24.64;42.19;101647.66;5036012;28;46521;-90
2022/11/29 13:07:41;;;;;;;;;12.00;8.67;;;;;24.69;42.01;101652.63;5049974;28;45393;-94
2022/11/29 13:10:18;;;;;;;;;9.67;9.33;;;;;24.77;42.12;101655.41;5038045;28;45461;-87
2022/11/29 13:12:56;;;;;;;;;11.00;9.00;;;;;24.83;42.34;101659.41;5034942;28;45286;-91
2022/11/29 13:16:02;;;;;;;;;9.33;9.33;;;;;24.92;42.33;101658.47;5034189;28;45317;-87
2022/11/29 13:19:06;;;;;;;;;10.00;10.00;;;;;25.02;42.16;101662.97;5031942;28;46737;-83
2022/11/29 13:22:05;;;;;;;;;8.33;8.33;;;;;25.08;41.98;101665.91;5038349;28;45347;-91
2022/11/29 13:24:38;;;;;;;;;10.67;10.67;;;;;25.15;41.88;101662.56;5043779;28;45424;-93
2022/11/29 13:27:05;;;;;;;;;12.67;11.00;;;;;25.18;41.86;101659.53;5204291;22;46203;-92
2022/11/29 13:29:32;;;;;;;;;13.67;12.00;;;;;25.24;42.05;101651.63;5057392;28;45300;-93
2022/11/29 13:31:58;;;;;;;;;10.33;8.33;;;;;25.31;41.91;101648.25;5056674;28;45442;-91
2022/11/29 13:34:31;;;;;;;;;7.33;7.33;;;;;25.38;41.68;101658.34;5052174;28;45314;-95
2022/11/29 13:37:11;;;;;;;;;8.67;8.67;;;;;25.46;41.87;101654.81;5057084;28;45435;-92
2022/11/29 13:40:25;;;;;;;;;12.00;9.00;;;;;25.54;41.89;101654.00;5054764;28;45602;-89
2022/11/29 13:43:12;;;;;;;;;8.00;8.00;;;;;25.52;42.02;101651.47;5051417;28;45351;-87
2022/11/29 13:45:49;;;;;;;;;7.33;7.33;;;;;25.47;41.45;101659.22;5054689;28;45448;-92
2022/11/29 13:48:36;;;;;;;;;9.33;9.33;;;;;25.42;41.73;101649.88;5042815;28;45564;-84
2022/11/29 13:51:34;;;;;;;;;8.00;7.33;;;;;25.42;41.78;101653.41;5051590;28;45353;-82
2022/11/29 13:54:05;;;;;;;;;9.00;8.33;;;;;25.45;41.80;101654.97;5053109;28;45512;-83
2022/11/29 13:56:41;;;;;;;;;10.33;9.00;;;;;25.47;42.08;101653.78;5055412;28;45649;-82
2022/11/29 13:59:13;;;;;;;;;9.33;9.00;;;;;25.51;41.90;101655.19;5055302;28;46400;-87
2022/11/29 14:01:49;;;;;;;;;9.00;7.00;;;;;25.57;42.01;101652.88;5055956;28;45518;-84
2022/11/29 14:04:34;;;;;;;;;12.00;9.33;;;;;25.62;41.47;101659.53;5053202;28;45403;-87
2022/11/29 14:07:03;;;;;;;;;8.00;8.00;;;;;25.64;41.96;101657.53;5055233;28;45296;-88
2022/11/29 14:09:56;;;;;;;;;9.00;8.00;;;;;25.71;41.31;101665.03;5042033;28;47482;-91
2022/11/29 14:12:42;;;;;;;;;11.33;11.00;;;;;25.71;41.84;101641.41;5042532;28;45579;-88
2022/11/29 14:15:16;;;;;;;;;8.00;7.00;;;;;25.72;41.40;101655.84;5049472;28;45383;-82
2022/11/29 14:17:51;;;;;;;;;9.33;9.33;;;;;25.70;41.36;101658.72;5055504;28;45571;-87
2022/11/29 14:20:22;;;;;;;;;7.33;7.33;;;;;25.67;41.54;101655.50;5052964;28;46991;-83
2022/11/29 14:23:29;;;;;;;;;8.00;8.00;;;;;25.67;41.81;101656.34;5053033;28;45483;-88
2022/11/29 14:25:57;;;;;;;;;9.67;9.00;;;;;25.68;41.59;101657.19;5002908;28;45497;-91
2022/11/29 14:28:22;;;;;;;;;9.67;9.00;;;;;25.65;41.77;101656.50;5009395;28;46413;-88
2022/11/29 14:30:48;;;;;;;;;8.33;8.33;;;;;25.67;41.61;101652.78;4992750;28;46198;-85
2022/11/29 14:33:19;;;;;;;;;7.00;7.00;;;;;25.70;42.08;101650.56;5006679;28;46475;-85
2022/11/29 14:35:55;;;;;;;;;8.67;8.33;;;;;25.75;41.61;101648.22;5013330;28;45786;-86
2022/11/29 14:38:36;;;;;;;;;8.00;8.00;;;;;25.79;41.55;101651.50;5011976;28;45554;-87
2022/11/29 14:41:27;;;;;;;;;9.33;9.33;;;;;25.78;41.43;101664.22;5013659;28;46023;-87
2022/11/29 14:44:24;;;;;;;;;9.00;8.00;;;;;25.71;42.05;101646.00;4995434;28;45473;-92
2022/11/29 14:47:00;;;;;;;;;8.00;7.00;;;;;25.74;41.93;101657.41;5004657;28;45952;-89
2022/11/29 14:49:27;;;;;;;;;9.00;7.33;;;;;25.73;41.93;101647.53;5009583;28;45447;-88
2022/11/29 14:52:14;;;;;;;;;7.67;7.67;;;;;25.72;41.54;101662.16;5004563;28;46307;-87
2022/11/29 14:54:59;;;;;;;;;7.00;6.67;;;;;25.73;41.96;101660.28;5011035;28;45444;-84
2022/11/29 14:58:00;;;;;;;;;9.67;8.00;;;;;25.78;41.93;101668.78;5011682;28;45612;-86
2022/11/29 15:00:28;;;;;;;;;8.33;8.33;;;;;25.83;41.56;101669.16;5036016;28;46421;-90
2022/11/29 15:02:59;;;;;;;;;9.67;8.33;;;;;25.86;41.51;101677.00;5043844;28;45694;-91
2022/11/29 15:05:38;;;;;;;;;10.33;10.00;;;;;25.84;41.30;101675.47;5050595;28;45744;-79
2022/11/29 15:08:25;;;;;;;;;11.33;8.67;;;;;25.79;41.82;101679.50;5053693;28;45442;-82
2022/11/29 15:11:21;;;;;;;;;8.00;6.67;;;;;25.74;41.67;101687.31;5038626;28;45308;-85
2022/11/29 15:14:11;;;;;;;;;11.33;10.67;;;;;25.76;41.89;101687.97;5041861;28;46336;-93
2022/11/29 15:17:06;;;;;;;;;8.33;8.33;;;;;25.79;42.00;101684.13;5052113;28;45463;-95
2022/11/29 15:19:38;;;;;;;;;7.33;6.00;;;;;25.85;41.66;101691.63;5054053;28;45451;-89
2022/11/29 15:22:26;;;;;;;;;10.67;6.00;;;;;25.87;41.63;101694.19;5052705;28;45543;-89
2022/11/29 15:24:59;;;;;;;;;7.33;7.33;;;;;25.89;42.05;101695.72;5052415;28;46817;-83
2022/11/29 15:27:24;;;;;;;;;7.67;7.67;;;;;25.95;41.66;101690.66;5046502;28;45557;-87
2022/11/29 15:29:51;;;;;;;;;8.00;6.67;;;;;26.02;41.60;101700.72;5051650;28;45408;-90
2022/11/29 15:32:20;;;;;;;;;7.00;7.00;;;;;26.10;41.77;101696.31;5053173;28;45473;-88
2022/11/29 15:34:52;;;;;;;;;9.00;7.67;;;;;26.12;41.49;101688.88;5052179;28;46310;-86
2022/11/29 15:37:43;;;;;;;;;6.33;5.00;;;;;26.09;41.93;101692.75;5050316;28;45516;-90
2022/11/29 15:40:19;;;;;;;;;6.00;6.00;;;;;26.10;41.54;101704.47;5049254;28;45511;-92
2022/11/29 15:42:56;;;;;;;;;8.00;6.00;;;;;26.10;41.45;101693.59;5054503;28;45481;-90
2022/11/29 15:45:33;;;;;;;;;7.67;7.67;;;;;26.16;41.59;101712.84;5045405;28;46254;-89
2022/11/29 15:48:18;;;;;;;;;7.00;7.00;;;;;26.18;41.95;101715.41;5055242;28;45531;-89
2022/11/29 15:51:17;;;;;;;;;7.33;7.33;;;;;26.15;42.10;101711.16;5049426;28;46824;-90
2022/11/29 15:54:00;;;;;;;;;10.00;6.00;;;;;26.15;41.94;101704.84;5049507;28;45516;-88
2022/11/29 15:56:34;;;;;;;;;5.33;5.33;;;;;26.18;41.62;101712.69;5048776;28;46945;-88
2022/11/29 15:59:06;;;;;;;;;6.00;6.00;;;;;26.22;42.03;101710.47;5053795;28;45469;-81
2022/11/29 16:01:33;;;;;;;;;10.00;8.67;;;;;26.26;41.74;101703.72;5052984;28;45449;-86
2022/11/29 16:03:58;;;;;;;;;8.00;5.67;;;;;26.30;42.04;101713.28;5051311;28;45505;-84
2022/11/29 16:06:29;;;;;;;;;8.00;7.67;;;;;26.33;41.72;101703.94;5053583;28;45323;-85
2022/11/29 16:08:54;;;;;;;;;8.33;7.33;;;;;26.36;41.93;101712.63;5055814;28;45470;-84
2022/11/29 16:11:23;;;;;;;;;8.67;7.67;;;;;26.38;41.63;101707.88;5057836;28;45438;-84
2022/11/29 16:14:11;;;;;;;;;9.67;5.67;;;;;26.40;41.88;101714.00;5055243;28;45604;-84
2022/11/29 16:16:38;;;;;;;;;7.00;5.67;;;;;26.42;42.15;101714.69;5041781;28;46353;-88
2022/11/29 16:19:26;;;;;;;;;8.00;7.67;;;;;26.46;41.67;101719.78;5056775;28;45533;-88
2022/11/29 16:22:12;;;;;;;;;9.33;8.67;;;;;26.48;41.41;101725.94;5054658;28;46767;-95
2022/11/29 16:24:59;;;;;;;;;12.67;10.33;;;;;26.44;41.52;101720.81;5054194;28;45493;-90
2022/11/29 16:27:25;;;;;;;;;8.67;7.67;;;;;26.41;41.19;101729.31;5045241;28;46068;-87
2022/11/29 16:29:54;;;;;;;;;9.33;9.00;;;;;26.39;41.36;101734.06;5054959;28;45395;-90
2022/11/29 16:32:41;;;;;;;;;9.00;9.00;;;;;26.39;41.32;101736.78;5050343;28;45427;-86
2022/11/29 16:35:27;;;;;;;;;9.00;9.00;;;;;26.38;41.14;101735.09;5048955;28;45845;-86
2022/11/29 16:37:52;;;;;;;;;9.33;8.00;;;;;26.36;41.42;101748.00;5052297;28;46712;-85
2022/11/29 16:40:20;;;;;;;;;10.33;9.67;;;;;26.35;40.98;101757.19;5055624;28;46438;-90
2022/11/29 16:43:03;;;;;;;;;10.33;8.67;;;;;26.35;41.06;101750.91;5054316;28;45548;-89
2022/11/29 16:45:28;;;;;;;;;10.67;10.67;;;;;26.30;40.71;101745.94;5052850;28;45358;-92
2022/11/29 17:23:26;;;;;;;;;11.67;10.67;;;;;21.48;41.85;101768.41;5071166;27;1273587;-84
2022/11/29 17:25:58;;;;;;;;;12.33;11.00;;;;;21.63;42.36;101764.44;5097011;27;45494;-88
2022/11/29 17:28:24;;;;;;;;;9.00;9.00;;;;;21.93;42.51;101762.81;5096682;27;45836;-83
2022/11/29 17:30:49;;;;;;;;;10.33;10.00;;;;;22.29;43.07;101758.84;5097140;27;47278;-85
2022/11/29 17:33:15;;;;;;;;;9.00;8.67;;;;;22.63;42.50;101770.28;5095702;27;45473;-88
2022/11/29 17:35:40;;;;;;;;;11.67;9.00;;;;;22.96;42.79;101761.94;5097182;27;45526;-92
2022/11/29 17:38:05;;;;;;;;;12.00;9.00;;;;;23.27;42.47;101760.97;5097054;27;48182;-94
2022/11/29 17:40:30;;;;;;;;;11.67;8.67;;;;;23.54;42.64;101762.97;5095786;27;50726;-94
2022/11/29 17:42:56;;;;;;;;;8.67;8.00;;;;;23.76;42.84;101758.25;5101270;27;51566;-90
2022/11/29 17:45:21;;;;;;;;;10.33;10.33;;;;;24.04;42.44;101762.91;5094999;27;46084;-85
2022/11/29 17:47:50;;;;;;;;;9.00;9.00;;;;;24.26;42.33;101769.84;5104244;27;46701;-87
2022/11/29 17:50:16;;;;;;;;;10.00;10.00;;;;;24.48;42.22;101775.88;5090984;27;45485;-83
2022/11/29 17:52:41;;;;;;;;;9.00;9.00;;;;;24.63;42.11;101768.09;5106794;27;45665;-95
2022/11/29 17:55:07;;;;;;;;;12.33;10.00;;;;;24.77;41.72;101772.16;5112493;27;58851;-89
2022/11/29 17:57:32;;;;;;;;;10.67;9.00;;;;;24.89;41.74;101777.41;5100097;27;45245;-90
2022/11/29 17:59:57;;;;;;;;;11.33;11.33;;;;;24.96;41.56;101782.09;5096993;27;45498;-92
2022/11/29 18:02:23;;;;;;;;;13.33;11.00;;;;;25.00;41.60;101788.06;5098862;27;45473;-91
2022/11/29 18:04:48;;;;;;;;;9.67;9.67;;;;;25.03;41.50;101778.75;5092198;27;55988;-87
2022/11/29 18:07:15;;;;;;;;;11.67;11.67;;;;;25.06;41.49;101794.75;5101094;27;45408;-87
2022/11/29 18:09:41;;;;;;;;;8.33;8.33;;;;;25.08;41.65;101790.88;5092105;27;45779;-89
2022/11/29 18:12:06;;;;;;;;;12.67;11.33;;;;;25.11;41.36;101795.13;5098455;27;45997;-87
2022/11/29 18:14:33;;;;;;;;;9.00;9.00;;;;;25.17;41.57;101804.53;5107421;27;45356;-92
2022/11/29 18:16:58;;;;;;;;;10.00;10.00;;;;;25.17;41.37;101793.66;5105445;27;45496;-88
2022/11/29 18:19:24;;;;;;;;;11.33;10.00;;;;;25.22;41.82;101800.31;5098236;27;45718;-90
2022/11/29 18:21:49;;;;;;;;;11.33;11.33;;;;;25.27;41.62;101791.72;5098578;27;46399;-83
2022/11/29 18:24:15;;;;;;;;;11.33;10.00;;;;;25.31;41.58;101790.41;5095609;27;45680;-87
2022/11/29 18:26:41;;;;;;;;;10.00;10.00;;;;;25.36;41.70;101793.53;5094964;27;45543;-87
2022/11/29 18:29:07;;;;;;;;;13.00;12.67;;;;;25.42;41.17;101800.16;5093761;27;45580;-90
2022/11/29 18:31:36;;;;;;;;;12.67;10.67;;;;;25.47;41.47;101810.59;5103409;27;45401;-89
2022/11/29 18:34:10;;;;;;;;;13.67;11.67;;;;;25.49;41.47;101811.28;5084813;27;45447;-89
2022/11/29 18:36:44;;;;;;;;;12.00;10.00;;;;;25.51;41.19;101806.56;5098365;27;45465;-84
2022/11/29 18:39:18;;;;;;;;;9.67;9.67;;;;;25.52;41.48;101805.53;5086011;27;45953;-84
2022/11/29 18:41:47;;;;;;;;;13.33;11.00;;;;;25.55;41.26;101807.09;5077101;27;46132;-83
2022/11/29 18:44:14;;;;;;;;;12.00;10.00;;;;;25.56;41.47;101809.69;5078086;27;45573;-81
2022/11/29 18:46:42;;;;;;;;;9.67;9.67;;;;;25.58;41.52;101807.66;5086568;27;45415;-82
2022/11/29 18:49:10;;;;;;;;;10.33;9.00;;;;;25.60;41.33;101810.22;5077310;27;45554;-81
2022/11/29 18:51:36;;;;;;;;;9.67;9.67;;;;;25.59;41.10;101803.09;5075744;27;45602;-82
2022/11/29 18:54:03;;;;;;;;;11.33;11.33;;;;;25.64;41.75;101806.19;5077633;27;45694;-83
2022/11/29 18:56:30;;;;;;;;;14.00;9.33;;;;;25.68;40.96;101809.44;5076868;27;45581;-85
2022/11/29 18:59:01;;;;;;;;;11.00;11.00;;;;;25.74;41.42;101811.50;5079584;27;45351;-92
2022/11/29 19:01:29;;;;;;;;;16.67;10.00;;;;;25.77;41.96;101809.34;5088019;27;45947;-93
2022/11/29 19:03:58;;;;;;;;;8.67;8.67;;;;;25.81;40.90;101815.31;5086813;27;45437;-87
2022/11/29 19:06:27;;;;;;;;;13.00;11.33;;;;;25.86;41.50;101815.69;5093107;27;45573;-93
2022/11/29 19:08:53;;;;;;;;;11.00;9.33;;;;;25.89;41.35;101811.81;5085080;27;45547;-81
2022/11/29 19:11:22;;;;;;;;;14.33;14.33;;;;;25.90;40.96;101817.09;5088519;27;46985;-81
2022/11/29 19:13:52;;;;;;;;;13.67;13.33;;;;;25.88;40.75;101813.66;5090344;27;45512;-82
2022/11/29 19:16:18;;;;;;;;;14.00;11.33;;;;;25.87;41.22;101819.28;5085919;27;45438;-82
2022/11/29 19:18:44;;;;;;;;;12.33;11.00;;;;;25.87;40.87;101817.41;5086224;27;45549;-83
2022/11/29 19:21:12;;;;;;;;;12.67;12.33;;;;;25.87;41.04;101828.28;5078436;27;45427;-83
2022/11/29 19:23:38;;;;;;;;;14.00;12.00;;;;;25.87;40.97;101825.56;5081323;27;45575;-83
2022/11/29 19:26:14;;;;;;;;;11.00;10.67;;;;;25.87;40.38;101828.28;5082596;27;45620;-84
2022/11/29 19:28:43;;;;;;;;;11.67;10.33;;;;;25.88;40.68;101827.25;5079343;27;45394;-81
2022/11/29 19:31:10;;;;;;;;;13.00;10.00;;;;;25.90;40.60;101822.53;5080276;27;46235;-82
2022/11/29 19:33:38;;;;;;;;;10.00;10.00;;;;;25.91;40.91;101820.66;5084170;27;45442;-84
2022/11/29 19:36:10;;;;;;;;;17.00;13.00;;;;;25.89;40.49;101818.13;5089293;27;45643;-85